Time;durP1;ratioP1;P1;durP2;ratioP2;P2;SDS_P1;SDS_P2;PMS_P1;PMS_P2;Temp;Humidity;BMP_temperature;BMP_pressure;BME280_temperature;BME280_humidity;BME280_pressure;Samples;Min_cycle;Max_cycle;Signal;HPM_P1;HPM_P2
2021/07/21 00:01:43;;;;;;;16.30;8.35;;;;;;;20.86;91.46;101497.84;5021377;28;20037;-75
2021/07/21 00:04:09;;;;;;;13.45;8.43;;;;;;;20.90;91.26;101495.88;5030207;28;20474;-74
2021/07/21 00:06:34;;;;;;;15.18;8.93;;;;;;;21.03;90.51;101493.44;5023372;28;20039;-74
2021/07/21 00:09:00;;;;;;;14.27;8.85;;;;;;;20.97;90.72;101490.31;5025112;28;20033;-74
2021/07/21 00:14:19;;;;;;;14.70;8.85;;;;;;;21.05;90.38;101485.59;5021667;28;20082;-74
2021/07/21 00:16:56;;;;;;;16.77;8.48;;;;;;;20.94;90.78;101485.66;5028986;28;20469;-74
2021/07/21 00:22:06;;;;;;;19.90;9.35;;;;;;;20.93;90.76;101486.03;5022962;28;20063;-74
2021/07/21 00:24:32;;;;;;;15.32;8.63;;;;;;;20.97;90.82;101482.09;5019769;28;20026;-75
2021/07/21 00:26:57;;;;;;;14.43;8.60;;;;;;;20.87;91.78;101479.44;5029533;28;20025;-75
2021/07/21 00:29:23;;;;;;;21.02;9.00;;;;;;;20.77;92.39;101478.34;5022909;28;20470;-75
2021/07/21 00:31:48;;;;;;;16.42;8.85;;;;;;;20.82;91.97;101486.16;5015918;28;20036;-75
2021/07/21 00:34:14;;;;;;;16.95;9.05;;;;;;;20.85;91.96;101481.84;5008941;28;20406;-75
2021/07/21 00:36:40;;;;;;;17.50;9.20;;;;;;;20.74;92.50;101476.44;5027854;28;20083;-74
2021/07/21 00:39:05;;;;;;;19.73;9.52;;;;;;;20.73;92.51;101474.84;5028175;28;20042;-75
2021/07/21 00:41:32;;;;;;;20.08;9.32;;;;;;;20.77;92.24;101469.38;5022931;28;20034;-75
2021/07/21 00:43:58;;;;;;;19.95;9.90;;;;;;;20.85;91.94;101473.63;5027419;28;20131;-75
2021/07/21 00:46:24;;;;;;;14.93;9.18;;;;;;;20.74;92.70;101473.69;5019496;28;20048;-75
2021/07/21 00:48:51;;;;;;;19.05;8.77;;;;;;;20.67;93.63;101481.97;5026985;28;20025;-75
2021/07/21 00:51:17;;;;;;;15.13;8.93;;;;;;;20.69;93.66;101482.34;5017118;28;20034;-75
2021/07/21 00:53:43;;;;;;;22.42;9.52;;;;;;;20.67;93.66;101471.78;5027791;28;20394;-75
2021/07/21 00:56:14;;;;;;;18.65;9.80;;;;;;;20.69;93.48;101468.66;5027979;28;20108;-75
2021/07/21 00:58:40;;;;;;;16.45;9.00;;;;;;;20.79;92.58;101467.00;5028930;28;20498;-74
2021/07/21 01:01:05;;;;;;;16.73;9.70;;;;;;;20.71;94.00;101469.03;5024950;28;20029;-75
2021/07/21 01:03:32;;;;;;;17.88;9.90;;;;;;;20.68;95.37;101469.81;5032131;28;20026;-75
2021/07/21 01:06:03;;;;;;;17.67;9.55;;;;;;;20.67;95.71;101469.03;5032634;28;20022;-75
2021/07/21 01:08:29;;;;;;;17.65;10.13;;;;;;;20.66;97.08;101466.72;5028365;28;20041;-75
2021/07/21 01:11:17;;;;;;;18.17;9.48;;;;;;;20.59;97.85;101478.50;5017636;28;20578;-75
2021/07/21 01:13:59;;;;;;;17.27;9.90;;;;;;;20.60;97.56;101482.00;5028407;28;20064;-75
2021/07/21 01:16:31;;;;;;;21.73;9.73;;;;;;;20.55;98.17;101479.72;5024849;28;20037;-74
2021/07/21 01:19:10;;;;;;;16.67;8.82;;;;;;;20.50;99.25;101477.38;5032966;28;20411;-75
2021/07/21 01:21:45;;;;;;;17.63;9.45;;;;;;;20.58;99.14;101479.69;5022698;28;20034;-75
2021/07/21 01:24:25;;;;;;;17.73;9.30;;;;;;;20.46;98.98;101487.59;5029836;28;20037;-75
2021/07/21 01:27:31;;;;;;;19.25;9.10;;;;;;;20.45;99.02;101484.09;5030995;28;20516;-75
2021/07/21 01:30:02;;;;;;;17.40;8.32;;;;;;;20.49;98.75;101489.53;5027788;28;20498;-75
2021/07/21 01:32:34;;;;;;;13.23;7.57;;;;;;;20.48;98.28;101486.00;5022904;28;20026;-75
2021/07/21 01:35:13;;;;;;;14.37;7.63;;;;;;;20.48;98.35;101482.47;5030975;28;20021;-75
2021/07/21 01:37:46;;;;;;;13.45;7.50;;;;;;;20.47;98.10;101483.66;5031110;28;20033;-75
2021/07/21 01:40:19;;;;;;;11.73;6.68;;;;;;;20.41;97.93;101491.53;5024187;28;20057;-75
2021/07/21 01:42:48;;;;;;;13.38;7.00;;;;;;;20.43;96.94;101491.13;5031305;28;20029;-75
2021/07/21 01:45:14;;;;;;;10.50;5.93;;;;;;;20.44;96.34;101493.47;5026201;28;20026;-74
2021/07/21 01:47:43;;;;;;;11.00;6.43;;;;;;;20.40;96.56;101491.94;5026965;28;20047;-75
2021/07/21 01:50:12;;;;;;;15.50;7.03;;;;;;;20.34;96.63;101485.31;5027158;28;20033;-75
2021/07/21 01:52:41;;;;;;;10.02;6.65;;;;;;;20.40;96.15;101479.00;5024085;28;20029;-75
2021/07/21 01:55:07;;;;;;;12.82;6.40;;;;;;;20.46;95.09;101476.66;5031319;28;20484;-75
2021/07/21 01:57:41;;;;;;;13.15;6.85;;;;;;;20.41;94.78;101477.84;5032164;28;20037;-75
2021/07/21 02:00:22;;;;;;;12.10;6.70;;;;;;;20.35;95.48;101487.66;5037178;28;20065;-75
2021/07/21 02:02:57;;;;;;;12.55;6.55;;;;;;;20.33;95.41;101489.22;5028756;28;20092;-75
2021/07/21 02:05:43;;;;;;;13.38;6.28;;;;;;;20.40;95.31;101484.47;5027589;28;20409;-75
2021/07/21 02:08:11;;;;;;;13.75;6.63;;;;;;;20.36;95.74;101483.72;5028308;28;20112;-75
2021/07/21 02:10:36;;;;;;;14.90;7.32;;;;;;;20.31;96.18;101480.63;5025285;28;20083;-75
2021/07/21 02:13:18;;;;;;;11.50;7.25;;;;;;;20.44;94.58;101493.47;5016687;28;20374;-75
2021/07/21 02:16:09;;;;;;;13.15;7.13;;;;;;;20.35;95.09;101482.19;5025783;28;20088;-74
2021/07/21 02:18:35;;;;;;;11.82;6.53;;;;;;;20.34;95.57;101490.81;5026381;28;20048;-75
2021/07/21 02:21:05;;;;;;;14.35;7.45;;;;;;;20.28;96.00;101484.19;5030429;28;20034;-75
2021/07/21 02:23:33;;;;;;;16.15;7.35;;;;;;;20.36;96.03;101488.44;5019915;28;20512;-75
2021/07/21 02:26:39;;;;;;;11.73;7.47;;;;;;;20.30;96.86;101484.56;4972009;28;20038;-75
2021/07/21 02:29:07;;;;;;;15.30;7.95;;;;;;;20.23;97.70;101481.84;4970484;28;20567;-75
2021/07/21 02:32:00;;;;;;;19.20;8.60;;;;;;;20.18;97.88;101479.53;4989310;28;20514;-75
2021/07/21 02:34:27;;;;;;;16.77;10.38;;;;;;;20.28;97.45;101481.44;5032534;28;20034;-74
2021/07/21 02:36:53;;;;;;;21.15;10.63;;;;;;;20.23;98.29;101477.16;5024855;28;20654;-75
2021/07/21 02:39:21;;;;;;;19.25;10.32;;;;;;;20.18;98.48;101483.06;5025472;28;20034;-75
2021/07/21 02:41:47;;;;;;;18.83;10.77;;;;;;;20.19;98.41;101473.66;5026503;28;20049;-75
2021/07/21 02:44:13;;;;;;;18.45;10.80;;;;;;;20.24;98.33;101475.22;5030275;28;20532;-75
2021/07/21 02:46:41;;;;;;;19.35;10.68;;;;;;;20.16;98.91;101470.94;5022808;28;20533;-75
2021/07/21 02:49:08;;;;;;;19.45;10.48;;;;;;;20.10;99.70;101475.25;5030095;28;20041;-74
2021/07/21 02:51:40;;;;;;;18.98;10.38;;;;;;;20.14;99.12;101473.28;5030413;28;20024;-74
2021/07/21 02:54:37;;;;;;;18.20;10.18;;;;;;;20.08;99.45;101472.16;5008589;28;20096;-75
2021/07/21 02:57:11;;;;;;;17.85;10.05;;;;;;;20.17;98.83;101467.03;5016736;28;20164;-75
2021/07/21 02:59:45;;;;;;;20.98;11.35;;;;;;;20.14;99.18;101478.75;5029929;28;20434;-75
2021/07/21 03:02:14;;;;;;;18.80;10.63;;;;;;;20.17;98.87;101481.47;5026647;28;20033;-75
2021/07/21 03:04:41;;;;;;;19.92;10.38;;;;;;;20.06;99.50;101475.28;5016157;28;20026;-74
2021/07/21 03:07:22;;;;;;;18.90;10.35;;;;;;;20.00;100.00;101473.34;5023430;28;20176;-75
2021/07/21 03:09:52;;;;;;;20.25;10.98;;;;;;;20.01;99.83;101478.44;5023712;28;20075;-74
2021/07/21 03:12:21;;;;;;;18.77;10.77;;;;;;;20.06;99.68;101480.75;5000404;28;20036;-75
2021/07/21 03:15:12;;;;;;;;;;;;;;;19.89;100.00;101470.69;5024789;28;20084;-74
2021/07/21 03:17:42;;;;;;;19.50;10.23;;;;;;;20.00;100.00;101478.81;5030890;28;19958;-75
2021/07/21 03:20:10;;;;;;;19.17;10.20;;;;;;;20.09;99.45;101479.94;5016237;28;20037;-75
2021/07/21 03:22:52;;;;;;;17.05;10.27;;;;;;;20.04;100.00;101471.38;5018772;28;20022;-74
2021/07/21 03:25:22;;;;;;;21.23;10.88;;;;;;;20.21;98.90;101474.06;5028445;28;20033;-74
2021/07/21 03:27:54;;;;;;;19.30;9.90;;;;;;;20.10;99.62;101476.06;5028899;28;20107;-74
2021/07/21 03:30:35;;;;;;;20.80;10.30;;;;;;;20.07;100.00;101476.06;5029455;28;20037;-74
2021/07/21 03:33:09;;;;;;;18.92;10.18;;;;;;;19.99;100.00;101471.81;5030298;28;20041;-75
2021/07/21 03:35:41;;;;;;;17.63;9.93;;;;;;;20.15;99.68;101472.13;5021348;28;20037;-75
2021/07/21 03:38:08;;;;;;;19.02;10.13;;;;;;;20.10;100.00;101481.53;5018211;28;20088;-74
2021/07/21 03:40:40;;;;;;;20.20;10.63;;;;;;;19.96;100.00;101478.06;5038926;28;20017;-74
2021/07/21 03:43:19;;;;;;;20.50;10.18;;;;;;;20.00;100.00;101487.81;5040480;28;20124;-74
2021/07/21 03:45:57;;;;;;;21.83;10.82;;;;;;;20.09;99.77;101484.66;5018371;28;20025;-74
2021/07/21 03:48:24;;;;;;;22.92;10.82;;;;;;;20.04;99.96;101482.31;5012773;28;20402;-74
2021/07/21 03:51:11;;;;;;;22.88;10.45;;;;;;;20.01;100.00;101485.88;5025864;28;20041;-74
2021/07/21 03:53:57;;;;;;;19.60;10.00;;;;;;;20.03;99.51;101483.53;5025870;28;20057;-74
2021/07/21 03:56:25;;;;;;;18.48;10.30;;;;;;;19.98;99.85;101484.69;4999773;28;20136;-74
2021/07/21 03:59:00;;;;;;;18.27;10.15;;;;;;;19.99;99.69;101483.53;5018667;28;20025;-74
2021/07/21 04:01:27;;;;;;;20.77;10.10;;;;;;;20.00;99.74;101487.81;5029159;28;20025;-74
2021/07/21 04:03:57;;;;;;;19.17;10.15;;;;;;;20.02;99.85;101490.94;5026608;28;20033;-74
2021/07/21 04:06:31;;;;;;;19.52;10.02;;;;;;;19.96;99.70;101489.78;5020794;28;20116;-74
2021/07/21 04:09:11;;;;;;;19.02;9.68;;;;;;;20.01;99.30;101491.34;5020423;28;20117;-74
2021/07/21 04:11:40;;;;;;;17.50;9.75;;;;;;;19.95;100.00;101499.19;5028984;28;20414;-75
2021/07/21 04:14:10;;;;;;;17.15;9.50;;;;;;;19.94;100.00;101497.59;5028843;28;20041;-74
2021/07/21 04:16:57;;;;;;;16.65;9.48;;;;;;;19.91;100.00;101498.41;5021939;28;20050;-74
2021/07/21 04:19:25;;;;;;;22.63;9.77;;;;;;;20.05;99.64;101494.84;5017891;28;20030;-74
2021/07/21 04:21:53;;;;;;;16.48;9.95;;;;;;;20.11;98.49;101495.97;5039004;28;20044;-74
2021/07/21 04:24:22;;;;;;;17.13;8.68;;;;;;;20.03;99.21;101495.25;5018484;28;20716;-74
2021/07/21 04:26:50;;;;;;;16.70;8.85;;;;;;;19.95;99.96;101495.66;5027456;28;20026;-74
2021/07/21 04:29:21;;;;;;;15.93;8.65;;;;;;;19.98;99.89;101498.38;5028929;28;20029;-75
2021/07/21 04:31:48;;;;;;;17.40;9.25;;;;;;;20.02;99.58;101495.63;5026844;28;20172;-75
2021/07/21 04:34:15;;;;;;;19.38;9.68;;;;;;;19.96;99.64;101489.78;5030845;28;20025;-75
2021/07/21 04:36:42;;;;;;;17.95;9.52;;;;;;;19.93;99.79;101490.59;5032367;28;20176;-75
2021/07/21 04:39:14;;;;;;;18.30;9.45;;;;;;;19.92;99.63;101493.72;5034443;28;20062;-75
2021/07/21 04:41:58;;;;;;;16.20;8.90;;;;;;;19.97;99.65;101499.56;5023580;28;20103;-75
2021/07/21 04:44:30;;;;;;;19.42;9.38;;;;;;;19.98;99.50;101503.84;5032338;28;20025;-75
2021/07/21 04:47:00;;;;;;;19.88;9.80;;;;;;;20.00;99.27;101511.66;5033577;28;20383;-75
2021/07/21 04:49:27;;;;;;;17.10;9.70;;;;;;;20.03;99.28;101510.88;5022944;28;20160;-75
2021/07/21 04:52:02;;;;;;;17.25;9.27;;;;;;;20.01;99.56;101505.81;5017671;28;20030;-75
2021/07/21 04:54:30;;;;;;;18.27;9.85;;;;;;;20.06;99.07;101516.31;5022859;28;20113;-75
2021/07/21 04:56:57;;;;;;;18.92;9.68;;;;;;;20.07;99.14;101523.34;5014719;28;20018;-75
2021/07/21 04:59:28;;;;;;;18.83;9.90;;;;;;;20.12;99.27;101525.66;5032168;28;20087;-75
2021/07/21 05:01:54;;;;;;;22.98;9.77;;;;;;;20.15;98.87;101524.09;5029092;28;20047;-75
2021/07/21 05:04:20;;;;;;;22.08;10.25;;;;;;;20.09;99.22;101525.69;5023999;28;20105;-75
2021/07/21 05:07:09;;;;;;;17.63;9.18;;;;;;;20.20;98.24;101524.50;5031999;28;20041;-75
2021/07/21 05:09:44;;;;;;;17.45;10.35;;;;;;;20.14;99.12;101530.75;5020908;28;20379;-75
2021/07/21 05:12:11;;;;;;;18.98;10.35;;;;;;;19.99;99.89;101540.19;5003752;28;20086;-75
2021/07/21 05:14:43;;;;;;;27.00;11.95;;;;;;;20.00;100.00;101539.00;5014730;28;20017;-75
2021/07/21 05:17:26;;;;;;;22.70;11.73;;;;;;;20.01;99.83;101543.31;5026781;28;20468;-75
2021/07/21 05:19:52;;;;;;;19.25;11.02;;;;;;;20.07;99.89;101547.19;5018700;28;20104;-75
2021/07/21 05:22:18;;;;;;;23.70;11.30;;;;;;;20.09;99.57;101547.56;5024677;28;20025;-75
2021/07/21 05:24:43;;;;;;;22.83;11.70;;;;;;;20.24;98.73;101538.94;5020699;28;20048;-74
2021/07/21 05:27:09;;;;;;;21.27;10.57;;;;;;;20.12;99.90;101544.03;5014894;28;20040;-75
2021/07/21 05:29:34;;;;;;;21.67;11.07;;;;;;;20.07;99.94;101539.78;5033488;28;20034;-75
2021/07/21 05:32:04;;;;;;;21.67;11.02;;;;;;;20.15;99.41;101543.25;5029117;28;20025;-74
2021/07/21 05:34:32;;;;;;;20.05;10.93;;;;;;;20.17;99.56;101552.59;5024656;28;20056;-75
2021/07/21 05:37:17;;;;;;;22.23;11.60;;;;;;;20.14;99.88;101553.41;5032067;28;20612;-75
2021/07/21 05:40:08;;;;;;;;;;;;;;;19.93;100.00;101552.72;5029562;28;20045;-75
2021/07/21 05:42:57;;;;;;;16.70;9.57;;;;;;;20.15;99.77;101556.94;4991556;28;20370;-75
2021/07/21 05:45:26;;;;;;;19.33;11.15;;;;;;;20.14;99.48;101553.41;5023683;28;20048;-75
2021/07/21 05:47:51;;;;;;;19.10;11.13;;;;;;;20.16;99.22;101559.25;5031155;28;20025;-75
2021/07/21 05:50:17;;;;;;;20.50;11.10;;;;;;;20.22;98.57;101554.97;5010819;28;20034;-75
2021/07/21 05:52:55;;;;;;;22.70;10.80;;;;;;;20.21;98.42;101556.13;5021959;28;20038;-75
2021/07/21 05:55:22;;;;;;;21.67;10.57;;;;;;;20.22;98.57;101554.97;5026159;28;20029;-75
2021/07/21 05:57:49;;;;;;;16.92;10.07;;;;;;;20.14;99.04;101556.16;5019380;28;20036;-75
2021/07/21 06:00:17;;;;;;;19.45;10.88;;;;;;;20.27;97.70;101557.28;5029670;28;20398;-75
2021/07/21 06:02:48;;;;;;;22.50;11.23;;;;;;;20.17;98.83;101566.28;5003378;28;20026;-75
2021/07/21 06:05:23;;;;;;;20.50;10.75;;;;;;;20.15;99.79;101565.13;5030065;28;20033;-75
2021/07/21 06:08:05;;;;;;;23.73;11.57;;;;;;;20.11;100.00;101564.38;5031106;28;20032;-75
2021/07/21 06:10:52;;;;;;;20.73;10.52;;;;;;;20.20;99.93;101567.47;5045582;23;20214;-78
2021/07/21 06:13:18;;;;;;;24.73;11.70;;;;;;;20.13;100.00;101570.22;5058552;28;20068;-78
2021/07/21 06:15:43;;;;;;;20.60;10.50;;;;;;;20.16;99.96;101572.16;5043237;28;20033;-77
2021/07/21 06:18:09;;;;;;;21.05;10.45;;;;;;;20.24;99.92;101579.19;5039545;28;20049;-78
2021/07/21 06:20:43;;;;;;;21.33;10.20;;;;;;;20.29;99.42;101578.75;5029789;28;20088;-78
2021/07/21 06:23:09;;;;;;;21.83;10.90;;;;;;;20.31;99.13;101569.00;5037740;28;20437;-77
2021/07/21 06:25:42;;;;;;;22.95;11.57;;;;;;;20.29;98.69;101582.28;5030045;28;20026;-78
2021/07/21 06:28:13;;;;;;;;;;;;;;;20.12;99.21;101576.84;5024553;28;20497;-78
2021/07/21 06:30:40;;;;;;;21.13;10.73;;;;;;;20.24;99.00;101584.66;5036679;28;19920;-78
2021/07/21 06:33:10;;;;;;;22.55;10.75;;;;;;;20.32;98.59;101588.94;5046140;28;20029;-78
2021/07/21 06:35:37;;;;;;;21.20;11.10;;;;;;;20.46;97.38;101589.63;5023944;28;20084;-79
2021/07/21 06:38:03;;;;;;;22.75;11.07;;;;;;;20.29;99.45;101590.50;5046659;28;20037;-78
2021/07/21 06:40:29;;;;;;;27.65;11.65;;;;;;;20.29;99.96;101601.44;5049501;28;20025;-78
2021/07/21 06:42:56;;;;;;;22.67;10.70;;;;;;;20.20;100.00;101594.84;5041571;28;20029;-78
2021/07/21 06:45:22;;;;;;;24.05;10.70;;;;;;;20.25;100.00;101603.41;5040931;28;20405;-78
2021/07/21 06:48:06;;;;;;;21.90;10.25;;;;;;;20.20;100.00;101612.03;5032276;28;20034;-78
2021/07/21 06:50:35;;;;;;;25.10;10.82;;;;;;;20.36;100.00;101603.38;5025386;28;20064;-78
2021/07/21 06:53:01;;;;;;;22.67;11.13;;;;;;;20.31;100.00;101614.72;5041275;28;20029;-78
2021/07/21 06:55:50;;;;;;;25.38;10.82;;;;;;;20.18;100.00;101619.88;5038940;28;20042;-78
2021/07/21 06:58:16;;;;;;;25.60;12.25;;;;;;;20.15;100.00;101619.84;5046007;28;20108;-78
2021/07/21 07:00:48;;;;;;;22.98;12.27;;;;;;;20.16;100.00;101622.19;5014127;28;20029;-78
2021/07/21 07:03:32;;;;;;;25.83;11.77;;;;;;;20.10;100.00;101625.72;5050086;28;20033;-77
2021/07/21 07:06:16;;;;;;;22.20;11.93;;;;;;;20.03;100.00;101633.94;5027508;28;20124;-77
2021/07/21 07:09:00;;;;;;;23.10;12.02;;;;;;;19.97;100.00;101632.78;5026025;28;20045;-77
2021/07/21 07:11:40;;;;;;;19.63;11.38;;;;;;;19.97;100.00;101630.06;5023152;28;20395;-76
2021/07/21 07:14:08;;;;;;;19.30;11.00;;;;;;;20.00;100.00;101630.03;5032308;28;20034;-77
2021/07/21 07:16:35;;;;;;;24.88;11.82;;;;;;;20.07;100.00;101632.00;5029128;28;20028;-77
2021/07/21 07:19:00;;;;;;;26.10;13.00;;;;;;;20.27;100.00;101627.63;5024579;28;20489;-76
2021/07/21 07:21:29;;;;;;;24.40;12.27;;;;;;;20.13;100.00;101631.16;5030227;28;20033;-77
2021/07/21 07:23:55;;;;;;;25.65;12.82;;;;;;;20.15;100.00;101625.31;5026936;28;20033;-76
2021/07/21 07:26:22;;;;;;;21.90;11.82;;;;;;;20.14;100.00;101619.06;5030959;28;20037;-76
2021/07/21 07:28:47;;;;;;;25.08;12.30;;;;;;;20.15;100.00;101626.09;5028680;28;20044;-76
2021/07/21 07:31:13;;;;;;;30.60;12.52;;;;;;;20.36;100.00;101634.25;5022208;28;20517;-76
2021/07/21 07:33:38;;;;;;;27.80;13.70;;;;;;;20.35;100.00;101623.69;5028269;28;20120;-77
2021/07/21 07:36:05;;;;;;;27.25;12.98;;;;;;;20.31;100.00;101622.94;5021011;28;20045;-76
2021/07/21 07:38:31;;;;;;;24.58;12.30;;;;;;;20.41;100.00;101627.59;5031182;28;20116;-77
2021/07/21 07:40:56;;;;;;;26.23;12.35;;;;;;;20.54;100.00;101634.16;5029471;28;20121;-76
2021/07/21 07:43:22;;;;;;;24.05;12.05;;;;;;;20.62;100.00;101628.28;5030227;28;20072;-76
2021/07/21 07:45:47;;;;;;;25.95;13.02;;;;;;;20.73;100.00;101627.44;5029257;28;20038;-76
2021/07/21 07:48:13;;;;;;;19.63;11.75;;;;;;;20.85;100.00;101635.22;5029743;28;20103;-77
2021/07/21 07:50:38;;;;;;;26.10;12.63;;;;;;;20.98;100.00;101628.06;5022341;28;20026;-77
2021/07/21 07:53:04;;;;;;;24.35;12.25;;;;;;;21.18;100.00;101637.34;5020777;28;20033;-77
2021/07/21 07:55:29;;;;;;;21.45;12.18;;;;;;;21.15;100.00;101638.94;5026697;28;21038;-76
2021/07/21 07:57:55;;;;;;;27.85;12.50;;;;;;;21.23;100.00;101632.22;5016101;28;20032;-77
2021/07/21 08:00:21;;;;;;;24.67;12.77;;;;;;;21.34;100.00;101626.66;5028611;28;20379;-76
2021/07/21 08:02:46;;;;;;;24.13;11.95;;;;;;;21.40;100.00;101636.00;5032544;28;20076;-77
2021/07/21 08:05:12;;;;;;;21.60;11.70;;;;;;;21.47;100.00;101623.00;5028762;28;20048;-77
2021/07/21 08:07:38;;;;;;;21.65;11.48;;;;;;;21.53;100.00;101626.09;5030752;28;20033;-77
2021/07/21 08:10:04;;;;;;;21.60;11.20;;;;;;;21.67;100.00;101623.22;5029434;28;20036;-77
2021/07/21 08:12:31;;;;;;;22.65;11.95;;;;;;;21.77;100.00;101621.56;5036488;28;20453;-77
2021/07/21 08:14:57;;;;;;;20.17;10.57;;;;;;;21.71;100.00;101618.50;5034270;28;20059;-78
2021/07/21 08:17:22;;;;;;;23.70;12.00;;;;;;;21.65;100.00;101633.03;5050851;28;20068;-77
2021/07/21 08:19:48;;;;;;;27.92;11.75;;;;;;;21.61;98.71;101635.03;5029104;28;20065;-78
2021/07/21 08:22:15;;;;;;;19.48;10.80;;;;;;;21.53;98.53;101637.84;5029549;28;20028;-78
2021/07/21 08:24:40;;;;;;;22.05;11.52;;;;;;;21.38;100.00;101633.69;5044612;28;20116;-79
2021/07/21 08:27:06;;;;;;;18.58;10.38;;;;;;;21.55;99.23;101645.66;5028945;28;20109;-80
2021/07/21 08:29:31;;;;;;;22.20;11.25;;;;;;;21.34;100.00;101630.19;5038719;28;20488;-78
2021/07/21 08:31:57;;;;;;;21.95;11.27;;;;;;;21.18;100.00;101635.38;5030542;28;20029;-79
2021/07/21 08:34:23;;;;;;;21.30;10.43;;;;;;;21.34;100.00;101643.09;5025669;28;20018;-78
2021/07/21 08:36:49;;;;;;;23.25;10.88;;;;;;;21.40;100.00;101636.00;5028959;28;20067;-77
2021/07/21 08:39:14;;;;;;;20.65;10.98;;;;;;;21.38;100.00;101638.38;5030631;28;20474;-79
2021/07/21 08:41:40;;;;;;;19.52;10.20;;;;;;;21.47;100.00;101633.19;5028544;28;20033;-78
2021/07/21 08:44:07;;;;;;;18.70;10.73;;;;;;;21.61;99.04;101637.78;5026530;28;20116;-77
2021/07/21 08:46:36;;;;;;;19.55;10.20;;;;;;;21.72;97.64;101641.97;5029120;28;20033;-77
2021/07/21 08:49:02;;;;;;;18.33;8.93;;;;;;;21.75;95.86;101640.41;5030488;28;20017;-78
2021/07/21 08:51:28;;;;;;;13.73;8.45;;;;;;;21.68;94.47;101637.72;5025946;28;20441;-78
2021/07/21 08:53:55;;;;;;;16.23;8.07;;;;;;;21.65;95.25;101635.78;5026458;28;20208;-78
2021/07/21 08:56:20;;;;;;;13.93;7.88;;;;;;;21.63;94.36;101641.69;5029083;28;20040;-78
2021/07/21 08:58:47;;;;;;;11.82;6.25;;;;;;;21.61;93.01;101648.75;5027946;28;20034;-77
2021/07/21 09:01:13;;;;;;;8.68;5.60;;;;;;;21.43;91.94;101655.16;5030441;28;20033;-77
2021/07/21 09:03:40;;;;;;;9.95;6.32;;;;;;;21.42;91.86;101650.09;5029192;28;20028;-77
2021/07/21 09:06:06;;;;;;;10.82;6.05;;;;;;;21.49;91.35;101655.50;5004909;28;20068;-78
2021/07/21 09:08:33;;;;;;;11.18;5.45;;;;;;;21.49;90.37;101659.03;5027976;28;20112;-77
2021/07/21 09:10:58;;;;;;;9.68;5.45;;;;;;;21.50;90.20;101657.09;5028446;28;20079;-77
2021/07/21 09:13:24;;;;;;;9.75;6.00;;;;;;;21.44;90.52;101651.25;5030404;28;20492;-78
2021/07/21 09:15:50;;;;;;;11.45;6.00;;;;;;;21.69;90.74;101659.25;5024947;28;20038;-78
2021/07/21 09:18:17;;;;;;;10.38;5.88;;;;;;;21.60;92.02;101653.47;5030028;28;20022;-78
2021/07/21 09:20:47;;;;;;;9.70;5.97;;;;;;;21.60;91.76;101645.25;5031412;28;20083;-78
2021/07/21 09:23:13;;;;;;;11.65;5.80;;;;;;;21.58;91.25;101664.06;5031309;28;20039;-78
2021/07/21 09:25:41;;;;;;;11.50;5.72;;;;;;;21.66;91.43;101656.56;5029454;28;20026;-78
2021/07/21 09:28:10;;;;;;;9.75;5.00;;;;;;;21.58;89.21;101666.03;5022801;28;20033;-77
2021/07/21 09:30:45;;;;;;;9.65;5.32;;;;;;;21.62;88.95;101658.53;5021012;28;20439;-77
2021/07/21 09:33:13;;;;;;;8.82;5.18;;;;;;;21.83;87.47;101661.13;5033453;28;20034;-77
2021/07/21 09:35:45;;;;;;;8.30;5.35;;;;;;;21.72;86.76;101668.66;5026782;28;20022;-78
2021/07/21 09:38:13;;;;;;;12.05;4.88;;;;;;;21.78;85.79;101667.00;5028785;28;20033;-77
2021/07/21 09:40:44;;;;;;;6.93;4.72;;;;;;;21.81;85.48;101663.50;5032204;28;20033;-77
2021/07/21 09:43:16;;;;;;;6.78;4.32;;;;;;;21.95;84.57;101669.59;5042692;28;20037;-78
2021/07/21 09:45:43;;;;;;;9.25;4.70;;;;;;;21.88;85.05;101669.69;5033983;28;20497;-78
2021/07/21 09:48:09;;;;;;;9.43;4.65;;;;;;;21.93;84.63;101673.97;5035063;28;20025;-78
2021/07/21 09:50:38;;;;;;;9.38;4.35;;;;;;;22.00;83.42;101671.94;5025268;28;20034;-77
2021/07/21 09:53:07;;;;;;;6.93;4.65;;;;;;;22.09;83.32;101672.22;5027038;28;20037;-77
2021/07/21 09:55:35;;;;;;;6.40;4.18;;;;;;;22.15;83.34;101678.03;5026836;28;20029;-77
2021/07/21 09:58:02;;;;;;;10.25;4.65;;;;;;;22.20;83.38;101683.09;5031006;28;20097;-77
2021/07/21 10:00:42;;;;;;;13.32;5.20;;;;;;;22.21;82.68;101668.16;5016702;28;20029;-77
2021/07/21 10:03:22;;;;;;;13.30;5.67;;;;;;;22.30;82.00;101682.19;5033938;28;20026;-78
2021/07/21 10:05:50;;;;;;;11.82;5.25;;;;;;;22.38;81.76;101675.41;5030289;28;20636;-78
2021/07/21 10:08:27;;;;;;;11.13;5.53;;;;;;;22.32;82.59;101674.31;5017306;28;20029;-77
2021/07/21 10:10:54;;;;;;;8.35;4.93;;;;;;;22.42;83.84;101676.94;5032995;28;20515;-78
2021/07/21 10:13:19;;;;;;;9.40;4.68;;;;;;;22.34;83.84;101680.16;5034619;28;20029;-78
2021/07/21 10:15:45;;;;;;;8.68;4.60;;;;;;;22.32;83.94;101675.09;5002907;28;20040;-78
2021/07/21 10:18:14;;;;;;;6.10;4.10;;;;;;;22.33;84.63;101673.13;5028090;28;20042;-78
2021/07/21 10:20:41;;;;;;;10.65;5.00;;;;;;;22.33;83.54;101675.88;5034620;28;20044;-78
2021/07/21 10:23:08;;;;;;;8.73;5.43;;;;;;;22.17;82.62;101681.94;5033149;28;20018;-78
2021/07/21 10:25:35;;;;;;;9.48;5.05;;;;;;;22.00;82.48;101687.59;5025643;28;20040;-78
2021/07/21 10:28:01;;;;;;;9.15;5.47;;;;;;;22.24;83.12;101676.34;5031382;28;20383;-78
2021/07/21 10:30:30;;;;;;;8.85;5.10;;;;;;;22.05;83.55;101678.91;5025691;28;20104;-77
2021/07/21 10:32:57;;;;;;;10.00;5.43;;;;;;;22.05;82.71;101676.16;5028155;28;20057;-79
2021/07/21 10:35:28;;;;;;;8.85;5.28;;;;;;;21.94;82.93;101675.50;5035096;28;20036;-78
2021/07/21 10:37:54;;;;;;;8.18;4.90;;;;;;;21.95;82.82;101677.84;5034356;28;20144;-78
2021/07/21 10:40:23;;;;;;;10.45;4.93;;;;;;;21.96;82.02;101670.41;5044510;28;20546;-78
2021/07/21 10:42:57;;;;;;;7.35;4.75;;;;;;;22.01;82.70;101662.50;5026535;28;20085;-78
2021/07/21 10:45:30;;;;;;;11.35;5.68;;;;;;;22.03;82.96;101664.81;5014217;28;20033;-78
2021/07/21 10:48:35;;;;;;;9.77;5.50;;;;;;;22.09;83.02;101663.19;5038307;28;20040;-78
2021/07/21 10:54:07;;;;;;;11.05;5.90;;;;;;;22.00;83.54;101655.47;5028396;28;20069;-78
2021/07/21 10:59:21;;;;;;;8.30;5.50;;;;;;;22.14;83.45;101657.28;5034364;28;20041;-78
2021/07/21 11:01:52;;;;;;;11.40;6.32;;;;;;;22.29;83.71;101653.19;5039070;28;20403;-78
2021/07/21 11:04:19;;;;;;;10.25;5.38;;;;;;;22.36;82.91;101661.31;5040393;28;20033;-77
2021/07/21 11:06:50;;;;;;;10.23;5.35;;;;;;;22.32;83.52;101661.38;5057201;28;20433;-78
2021/07/21 11:09:23;;;;;;;9.07;5.72;;;;;;;22.32;82.90;101655.88;5040059;28;20049;-77
2021/07/21 11:11:54;;;;;;;12.30;5.70;;;;;;;22.25;83.64;101655.19;5039067;28;20038;-78
2021/07/21 11:14:24;;;;;;;;;;;;;;;22.28;82.76;101663.38;5026248;28;20045;-78
2021/07/21 11:16:55;;;;;;;13.93;6.03;;;;;;;22.32;82.68;101655.09;5041425;28;19932;-77
2021/07/21 11:19:23;;;;;;;10.25;5.65;;;;;;;22.29;83.31;101650.44;5038029;28;20037;-77
2021/07/21 11:21:56;;;;;;;12.35;5.40;;;;;;;22.50;82.83;101655.66;5045222;28;20076;-78
2021/07/21 11:24:22;;;;;;;9.02;5.65;;;;;;;22.68;81.95;101649.97;5026939;28;20036;-78
2021/07/21 11:26:52;;;;;;;10.98;5.40;;;;;;;22.80;80.31;101657.66;5030423;28;20108;-78
2021/07/21 11:29:29;;;;;;;8.90;5.60;;;;;;;22.84;79.62;101661.16;5021767;28;20527;-78
2021/07/21 11:31:55;;;;;;;13.35;5.57;;;;;;;22.85;80.20;101654.44;5035074;28;20029;-77
2021/07/21 11:34:41;;;;;;;10.88;5.97;;;;;;;22.84;80.70;101653.66;5033849;28;20026;-78
2021/07/21 11:37:17;;;;;;;10.38;5.90;;;;;;;22.91;80.39;101650.84;5037229;28;20030;-78
2021/07/21 11:39:53;;;;;;;8.82;5.32;;;;;;;23.04;80.36;101649.06;5012557;28;20044;-78
2021/07/21 11:42:40;;;;;;;12.82;6.15;;;;;;;22.97;80.93;101656.63;5027142;28;20037;-78